South Britain, CT

12:37 PM EDT on September 30, 2014 (GMT -0400)
Meriden Markham Municipal | Change Station
CLOSE
Current Station
Airport
Location: Meriden,
Elevation: 102 ft
Nearby Weather Stations

Elev 102 ft 41.51 °N, 72.83 °W | Updated 44 minutes ago

Overcast
Overcast
60 °F
Feels Like 60 °F
N
6
Wind Variable Wind from NE

Today
High -- | Low -- °F
--% Chance of Precip.
Yesterday
High -- | Low -- °F
Precip. -- in
6:48 AM 6:36 PM
Waxing Crescent, 38% visible
Pressure 29.99 in
Visibility 9.0 miles
Clouds Overcast 1000 ft
Dew Point 55 °F
Humidity 83%
Rainfall 0.00 in
Snow Depth Not available.
UV 2 out of 12
Pollen 1.50 out of 12
Ozone Good
PM2.5 Moderate
Flu Activity Not available.
METAR KMMK 301553Z AUTO 04005KT 9SM OVC010 16/13 A2999 RMK AO2 RAE44 SLP155 P0000 T01560128 TSNO

More Conditions Fewer Conditions

Pressure 29.99 in
Visibility 9.0 miles
Clouds Overcast 1000 ft
Dew Point 55 °F
Humidity 83%
Rainfall 0.00 in
Snow Depth Not available.
UV 2 out of 12
Pollen 1.50 out of 12
Ozone Good
PM2.5 Moderate
Flu Activity Not available.
METAR KMMK 301553Z AUTO 04005KT 9SM OVC010 16/13 A2999 RMK AO2 RAE44 SLP155 P0000 T01560128 TSNO

More Conditions Fewer Conditions

10-Day Weather Forecast

Almanac

Astronomy

Sep. 30, 2014 Rise Set
Actual Time 6:48 AM EDT 6:36 PM EDT
Civil Twilight 6:21 AM EDT 7:04 PM EDT
Nautical Twilight 5:48 AM EDT 7:36 PM EDT
Astronomical Twilight 5:16 AM EDT 8:08 PM EDT
Moon 12:57 PM EDT 11:00 PM EDT
Length of Visible Light 12h 43m
Length of Day
11h 47m
Tomorrow will be 2m 45s shorter.
Waxing Crescent, 38% of the Moon is Illuminated
Today
Waxing Crescent
Oct 1
First Quarter
Oct 8
Full
Oct 15
Last Quarter
Oct 23
New

Today's Extremes

State Highs State Lows

Community

WunderPhotos

Upload Photos

1,757,679 photos uploaded!

Nearby

Air Quality

  Air Quality AQ Index Pollutant
Yesterday Moderate
PM2.5
Yesterday Good
OZONE
Current Moderate
PM2.5
Current Good
OZONE
Tuesday Moderate
PM2.5
Tuesday Good
OZONE

Snow Depth

Station Depth Elevation
No new snow has been reported.

Earthquake Activity

City Distance Mag. Time & Date
No recent earthquake activity has been reported nearby.
Minimum magnitude displayed is 2.5.

Coastal Water Temperatures

Place Temperature
Kings Point, NY 66.9 °F
Bridgeport, CT 69.1 °F

Nearby Weather Stations